James L. Oberstar — WDC6154 — position and weather

sailwx.info

Track history (hours):
 
Tides and Currents Weather Stations Pressure Air Temp Water Temp Dewpoint Dewpoint Depression Visibility Wind Speed Wind Dir Waves Ship Positions

James L. Oberstar

Owner: Destin Trading Corporation, harahan, LA. More information available from US FCC via Universal Licensing System and Coast Guard Vessel Documentation Center.

Last reported at 2014-Oct-07 12:25 UTC. Time now 2014-Oct-20 11:35 UTC.
Position N 29°59' W 090°24'.
Warning: this ship's position is 12 days out of date.

Length 26 m; draft 2.8 m.

Type: Towing. MMSI: 367052120.

Date/timePositionNaut miles runAvg speedWind from/ knotsBaromVisibWave heightAir tempDewpointWater temp
2014-Oct-07 12:25N 29°59' W 090°24'0 0.0
2014-Oct-07 11:27N 29°59' W 090°24'0 0.0
2014-Oct-07 10:33N 29°59' W 090°24'0 0.0
2014-Oct-07 09:27N 29°59' W 090°24'0 0.0
2014-Oct-07 08:30N 29°59' W 090°24'0 0.0
2014-Oct-07 07:33N 29°59' W 090°24'0 0.0
2014-Oct-07 06:33N 29°59' W 090°24'0 0.0
2014-Oct-07 05:33N 29°59' W 090°24'0 0.0
2014-Oct-07 04:33N 29°59' W 090°24'0 0.0
2014-Oct-07 03:33N 29°59' W 090°24'0 0.0
2014-Oct-07 02:33N 29°59' W 090°24'0 0.0
2014-Oct-07 01:30N 29°59' W 090°24'0 0.0
2014-Oct-07 00:33N 29°59' W 090°24'0 0.0
2014-Oct-06 23:33N 29°59' W 090°24'1 0.0
2014-Oct-06 12:19N 29°59' W 090°24'0 0.0
2014-Oct-06 11:28N 29°59' W 090°24'0 0.0
2014-Oct-06 10:22N 29°59' W 090°24'0 0.3
2014-Oct-06 09:25N 29°59' W 090°24'0 0.0
2014-Oct-06 08:31N 29°59' W 090°24'0 0.0
2014-Oct-06 07:31N 29°59' W 090°24'0 0.0
2014-Oct-06 06:28N 29°59' W 090°24'0 0.0
2014-Oct-06 05:28N 29°59' W 090°24'0 0.0
2014-Oct-06 04:31N 29°59' W 090°24'0 0.0
2014-Oct-06 03:28N 29°59' W 090°24'0 0.0
2014-Oct-06 02:31N 29°59' W 090°24'0 0.0
2014-Oct-06 01:31N 29°59' W 090°24'0 0.0
2014-Oct-06 00:31N 29°59' W 090°24'0 0.0
2014-Oct-05 23:31N 29°59' W 090°24'0 0.0
2014-Oct-05 22:31N 29°59' W 090°24'0 0.0
2014-Oct-05 21:31N 29°59' W 090°24'0 0.2
2014-Oct-05 20:28N 29°59' W 090°24'0 0.0
2014-Oct-05 19:31N 29°59' W 090°24'0 0.0
2014-Oct-05 18:31N 29°59' W 090°24'0 0.0
2014-Oct-05 17:28N 29°59' W 090°24'0 0.0
2014-Oct-05 16:28N 29°59' W 090°24'0 0.3
2014-Oct-05 15:30N 29°59' W 090°24'0 0.0
2014-Oct-05 14:33N 29°59' W 090°24'0 0.0
2014-Oct-05 13:21N 29°59' W 090°24'0 0.0
2014-Oct-05 12:33N 29°59' W 090°24'0 0.0
2014-Oct-05 11:32N 29°59' W 090°24'0 0.0
2014-Oct-05 10:32N 29°59' W 090°24'0 0.0
2014-Oct-05 09:32N 29°59' W 090°24'0 0.0
2014-Oct-05 08:29N 29°59' W 090°24'0 0.0
2014-Oct-05 07:32N 29°59' W 090°24'0 0.0
2014-Oct-05 06:29N 29°59' W 090°24'0 0.0
2014-Oct-05 05:32N 29°59' W 090°24'0 0.0
2014-Oct-05 04:32N 29°59' W 090°24'0 0.0
2014-Oct-05 03:23N 29°59' W 090°24'0 0.0
2014-Oct-05 02:32N 29°59' W 090°24'0 0.0
2014-Oct-05 01:23N 29°59' W 090°24'0 0.0
2014-Oct-05 00:32N 29°59' W 090°24'2 1.1
2014-Oct-04 23:05N 29°58' W 090°24'2 4.0
2014-Oct-04 22:32N 29°56' W 090°22'2 0.2
2014-Oct-04 13:32N 29°56' W 090°19'0 0.0
2014-Oct-04 08:32N 29°56' W 090°19'0 0.0
2014-Oct-04 07:29N 29°56' W 090°19'1 0.7
2014-Oct-04 06:31N 29°56' W 090°20'3 2.8
2014-Oct-04 05:27N 29°57' W 090°23'0 0.0
2014-Oct-04 02:26N 29°57' W 090°23'0 0.0
2014-Oct-04 01:32N 29°57' W 090°23'0 0.0
2014-Oct-03 12:32N 29°57' W 090°23'0 0.0
2014-Oct-03 11:31N 29°57' W 090°23'0 0.0
2014-Oct-03 10:31N 29°57' W 090°23'0 0.0
2014-Oct-03 09:31N 29°57' W 090°23'0 0.0
2014-Oct-03 08:28N 29°57' W 090°23'0 0.0
2014-Oct-03 04:32N 29°57' W 090°23'5 4.9
2014-Oct-03 03:32N 29°60' W 090°28'4 4.2
2014-Oct-03 02:33N 29°58' W 090°24'6 5.2
2014-Oct-03 01:19N 29°58' W 090°16'7 0.6
2014-Oct-02 12:26N 29°60' W 090°24'0 0.0
2014-Oct-02 11:29N 29°60' W 090°24'0 0.0
2014-Oct-02 10:32N 29°60' W 090°24'0 0.0
2014-Oct-02 09:29N 29°60' W 090°24'0 0.0
2014-Oct-02 08:32N 29°60' W 090°24'0 0.0
2014-Oct-02 07:08N 29°60' W 090°24'0 0.0
2014-Oct-02 06:20N 29°60' W 090°24'0 0.0
2014-Oct-02 05:23N 29°60' W 090°24'0 0.0
2014-Oct-02 04:29N 29°60' W 090°24'0 0.0
2014-Oct-02 03:32N 29°60' W 090°24'0 0.0
2014-Oct-02 02:32N 29°60' W 090°24'0 0.0
2014-Oct-02 01:32N 29°60' W 090°24'0 0.0
2014-Oct-02 00:32N 29°60' W 090°24'0 0.0
2014-Oct-01 23:32N 29°60' W 090°24'0 0.0
2014-Oct-01 22:14N 29°60' W 090°24'1 0.1
2014-Oct-01 12:33N 29°59' W 090°24'0 0.0
2014-Oct-01 11:33N 29°59' W 090°24'0 0.0
2014-Oct-01 10:33N 29°59' W 090°24'0 0.0
2014-Oct-01 09:30N 29°59' W 090°24'0 0.0
2014-Oct-01 08:27N 29°59' W 090°24'0 0.0
2014-Oct-01 07:33N 29°59' W 090°24'0 0.0
2014-Oct-01 06:33N 29°59' W 090°24'0 0.0
2014-Oct-01 05:33N 29°59' W 090°24'0 0.0
2014-Oct-01 04:30N 29°59' W 090°24'0 0.0
2014-Oct-01 03:30N 29°59' W 090°24'0 0.0
2014-Oct-01 02:33N 29°59' W 090°24'0 0.0
2014-Oct-01 01:33N 29°59' W 090°24'0 0.0
2014-Oct-01 00:29N 29°59' W 090°24'0 0.0
2014-Sep-30 23:32N 29°59' W 090°24'0 0.0
2014-Sep-30 22:32N 29°59' W 090°24'5 0.2
2014-Sep-30 01:06N 29°56' W 090°19'3 5.7
2014-Sep-30 00:33N 29°57' W 090°23'1 1.2
2014-Sep-29 23:34N 29°58' W 090°24'0 0.0
2014-Sep-29 12:07N 29°58' W 090°24'0 0.0
2014-Sep-29 11:33N 29°58' W 090°24'0 0.0
2014-Sep-29 10:33N 29°58' W 090°24'0 0.0
2014-Sep-29 09:33N 29°58' W 090°24'0 0.0
2014-Sep-29 08:21N 29°58' W 090°24'0 0.0
2014-Sep-29 07:33N 29°58' W 090°24'0 0.0
2014-Sep-29 06:21N 29°58' W 090°24'0 0.0
2014-Sep-29 02:32N 29°58' W 090°24'0 0.0
2014-Sep-29 00:32N 29°58' W 090°24'0 0.0
2014-Sep-28 21:14N 29°58' W 090°24'0 0.0
2014-Sep-28 20:32N 29°58' W 090°24'0 0.0
2014-Sep-28 19:32N 29°58' W 090°24'0 0.0
2014-Sep-28 18:14N 29°58' W 090°24'0 0.0
2014-Sep-28 16:20N 29°58' W 090°24'0 0.0
2014-Sep-28 11:32N 29°58' W 090°24'0 0.0
2014-Sep-28 09:20N 29°58' W 090°24'0 0.0
2014-Sep-28 06:26N 29°58' W 090°24'0 0.0
2014-Sep-28 05:08N 29°58' W 090°24'0 0.0
2014-Sep-28 04:32N 29°58' W 090°24'0 0.0
2014-Sep-28 02:20N 29°58' W 090°24'0 0.0
2014-Sep-28 01:20N 29°58' W 090°24'0 0.0
2014-Sep-27 23:26N 29°58' W 090°24'0 0.0
2014-Sep-27 22:32N 29°58' W 090°24'  
Track history (hours):
 
Tides and Currents Weather Stations Pressure Air Temp Water Temp Dewpoint Dewpoint Depression Visibility Wind Speed Wind Dir Waves Ship Positions

James L. Oberstar

Owner: Destin Trading Corporation, harahan, LA. More information available from US FCC via Universal Licensing System and Coast Guard Vessel Documentation Center.

Last reported at 2014-Oct-07 12:25 UTC. Time now 2014-Oct-20 11:35 UTC.
Position N 29°59' W 090°24'.
Warning: this ship's position is 12 days out of date.

Length 26 m; draft 2.8 m.

Type: Towing. MMSI: 367052120.

Date/timePositionNaut miles runAvg speedWind from/ knotsBaromVisibWave heightAir tempDewpointWater temp
2014-Oct-07 12:25N 29°59' W 090°24'0 0.0
2014-Oct-07 11:27N 29°59' W 090°24'0 0.0
2014-Oct-07 10:33N 29°59' W 090°24'0 0.0
2014-Oct-07 09:27N 29°59' W 090°24'0 0.0
2014-Oct-07 08:30N 29°59' W 090°24'0 0.0
2014-Oct-07 07:33N 29°59' W 090°24'0 0.0
2014-Oct-07 06:33N 29°59' W 090°24'0 0.0
2014-Oct-07 05:33N 29°59' W 090°24'0 0.0
2014-Oct-07 04:33N 29°59' W 090°24'0 0.0
2014-Oct-07 03:33N 29°59' W 090°24'0 0.0
2014-Oct-07 02:33N 29°59' W 090°24'0 0.0
2014-Oct-07 01:30N 29°59' W 090°24'0 0.0
2014-Oct-07 00:33N 29°59' W 090°24'0 0.0
2014-Oct-06 23:33N 29°59' W 090°24'1 0.0
2014-Oct-06 12:19N 29°59' W 090°24'0 0.0
2014-Oct-06 11:28N 29°59' W 090°24'0 0.0
2014-Oct-06 10:22N 29°59' W 090°24'0 0.3
2014-Oct-06 09:25N 29°59' W 090°24'0 0.0
2014-Oct-06 08:31N 29°59' W 090°24'0 0.0
2014-Oct-06 07:31N 29°59' W 090°24'0 0.0
2014-Oct-06 06:28N 29°59' W 090°24'0 0.0
2014-Oct-06 05:28N 29°59' W 090°24'0 0.0
2014-Oct-06 04:31N 29°59' W 090°24'0 0.0
2014-Oct-06 03:28N 29°59' W 090°24'0 0.0
2014-Oct-06 02:31N 29°59' W 090°24'0 0.0
2014-Oct-06 01:31N 29°59' W 090°24'0 0.0
2014-Oct-06 00:31N 29°59' W 090°24'0 0.0
2014-Oct-05 23:31N 29°59' W 090°24'0 0.0
2014-Oct-05 22:31N 29°59' W 090°24'0 0.0
2014-Oct-05 21:31N 29°59' W 090°24'0 0.2
2014-Oct-05 20:28N 29°59' W 090°24'0 0.0
2014-Oct-05 19:31N 29°59' W 090°24'0 0.0
2014-Oct-05 18:31N 29°59' W 090°24'0 0.0
2014-Oct-05 17:28N 29°59' W 090°24'0 0.0
2014-Oct-05 16:28N 29°59' W 090°24'0 0.3
2014-Oct-05 15:30N 29°59' W 090°24'0 0.0
2014-Oct-05 14:33N 29°59' W 090°24'0 0.0
2014-Oct-05 13:21N 29°59' W 090°24'0 0.0
2014-Oct-05 12:33N 29°59' W 090°24'0 0.0
2014-Oct-05 11:32N 29°59' W 090°24'0 0.0
2014-Oct-05 10:32N 29°59' W 090°24'0 0.0
2014-Oct-05 09:32N 29°59' W 090°24'0 0.0
2014-Oct-05 08:29N 29°59' W 090°24'0 0.0
2014-Oct-05 07:32N 29°59' W 090°24'0 0.0
2014-Oct-05 06:29N 29°59' W 090°24'0 0.0
2014-Oct-05 05:32N 29°59' W 090°24'0 0.0
2014-Oct-05 04:32N 29°59' W 090°24'0 0.0
2014-Oct-05 03:23N 29°59' W 090°24'0 0.0
2014-Oct-05 02:32N 29°59' W 090°24'0 0.0
2014-Oct-05 01:23N 29°59' W 090°24'0 0.0
2014-Oct-05 00:32N 29°59' W 090°24'2 1.1
2014-Oct-04 23:05N 29°58' W 090°24'2 4.0
2014-Oct-04 22:32N 29°56' W 090°22'2 0.2
2014-Oct-04 13:32N 29°56' W 090°19'0 0.0
2014-Oct-04 08:32N 29°56' W 090°19'0 0.0
2014-Oct-04 07:29N 29°56' W 090°19'1 0.7
2014-Oct-04 06:31N 29°56' W 090°20'3 2.8
2014-Oct-04 05:27N 29°57' W 090°23'0 0.0
2014-Oct-04 02:26N 29°57' W 090°23'0 0.0
2014-Oct-04 01:32N 29°57' W 090°23'0 0.0
2014-Oct-03 12:32N 29°57' W 090°23'0 0.0
2014-Oct-03 11:31N 29°57' W 090°23'0 0.0
2014-Oct-03 10:31N 29°57' W 090°23'0 0.0
2014-Oct-03 09:31N 29°57' W 090°23'0 0.0
2014-Oct-03 08:28N 29°57' W 090°23'0 0.0
2014-Oct-03 04:32N 29°57' W 090°23'5 4.9
2014-Oct-03 03:32N 29°60' W 090°28'4 4.2
2014-Oct-03 02:33N 29°58' W 090°24'6 5.2
2014-Oct-03 01:19N 29°58' W 090°16'7 0.6
2014-Oct-02 12:26N 29°60' W 090°24'0 0.0
2014-Oct-02 11:29N 29°60' W 090°24'0 0.0
2014-Oct-02 10:32N 29°60' W 090°24'0 0.0
2014-Oct-02 09:29N 29°60' W 090°24'0 0.0
2014-Oct-02 08:32N 29°60' W 090°24'0 0.0
2014-Oct-02 07:08N 29°60' W 090°24'0 0.0
2014-Oct-02 06:20N 29°60' W 090°24'0 0.0
2014-Oct-02 05:23N 29°60' W 090°24'0 0.0
2014-Oct-02 04:29N 29°60' W 090°24'0 0.0
2014-Oct-02 03:32N 29°60' W 090°24'0 0.0
2014-Oct-02 02:32N 29°60' W 090°24'0 0.0
2014-Oct-02 01:32N 29°60' W 090°24'0 0.0
2014-Oct-02 00:32N 29°60' W 090°24'0 0.0
2014-Oct-01 23:32N 29°60' W 090°24'0 0.0
2014-Oct-01 22:14N 29°60' W 090°24'1 0.1
2014-Oct-01 12:33N 29°59' W 090°24'0 0.0
2014-Oct-01 11:33N 29°59' W 090°24'0 0.0
2014-Oct-01 10:33N 29°59' W 090°24'0 0.0
2014-Oct-01 09:30N 29°59' W 090°24'0 0.0
2014-Oct-01 08:27N 29°59' W 090°24'0 0.0
2014-Oct-01 07:33N 29°59' W 090°24'0 0.0
2014-Oct-01 06:33N 29°59' W 090°24'0 0.0
2014-Oct-01 05:33N 29°59' W 090°24'0 0.0
2014-Oct-01 04:30N 29°59' W 090°24'0 0.0
2014-Oct-01 03:30N 29°59' W 090°24'0 0.0
2014-Oct-01 02:33N 29°59' W 090°24'0 0.0
2014-Oct-01 01:33N 29°59' W 090°24'0 0.0
2014-Oct-01 00:29N 29°59' W 090°24'0 0.0
2014-Sep-30 23:32N 29°59' W 090°24'0 0.0
2014-Sep-30 22:32N 29°59' W 090°24'5 0.2
2014-Sep-30 01:06N 29°56' W 090°19'3 5.7
2014-Sep-30 00:33N 29°57' W 090°23'1 1.2
2014-Sep-29 23:34N 29°58' W 090°24'0 0.0
2014-Sep-29 12:07N 29°58' W 090°24'0 0.0
2014-Sep-29 11:33N 29°58' W 090°24'0 0.0
2014-Sep-29 10:33N 29°58' W 090°24'0 0.0
2014-Sep-29 09:33N 29°58' W 090°24'0 0.0
2014-Sep-29 08:21N 29°58' W 090°24'0 0.0
2014-Sep-29 07:33N 29°58' W 090°24'0 0.0
2014-Sep-29 06:21N 29°58' W 090°24'0 0.0
2014-Sep-29 02:32N 29°58' W 090°24'0 0.0
2014-Sep-29 00:32N 29°58' W 090°24'0 0.0
2014-Sep-28 21:14N 29°58' W 090°24'0 0.0
2014-Sep-28 20:32N 29°58' W 090°24'0 0.0
2014-Sep-28 19:32N 29°58' W 090°24'0 0.0
2014-Sep-28 18:14N 29°58' W 090°24'0 0.0
2014-Sep-28 16:20N 29°58' W 090°24'0 0.0
2014-Sep-28 11:32N 29°58' W 090°24'0 0.0
2014-Sep-28 09:20N 29°58' W 090°24'0 0.0
2014-Sep-28 06:26N 29°58' W 090°24'0 0.0
2014-Sep-28 05:08N 29°58' W 090°24'0 0.0
2014-Sep-28 04:32N 29°58' W 090°24'0 0.0
2014-Sep-28 02:20N 29°58' W 090°24'0 0.0
2014-Sep-28 01:20N 29°58' W 090°24'0 0.0
2014-Sep-27 23:26N 29°58' W 090°24'0 0.0
2014-Sep-27 22:32N 29°58' W 090°24'  

Dump ship's entire track history